Time;durP1;ratioP1;P1;durP2;ratioP2;P2;SDS_P1;SDS_P2;PMS_P1;PMS_P2;Temp;Humidity;BMP_temperature;BMP_pressure;BME280_temperature;BME280_humidity;BME280_pressure;Samples;Min_cycle;Max_cycle;Signal;HPM_P1;HPM_P2
2020/12/07 00:01:37;;;;;;;2.77;2.57;;;;;;;18.26;49.72;99144.84;5076573;28;20202;-67
2020/12/07 00:04:04;;;;;;;3.00;2.80;;;;;;;18.23;49.99;99152.53;5075385;28;20198;-66
2020/12/07 00:06:30;;;;;;;2.97;2.77;;;;;;;18.22;49.73;99161.72;5076257;28;20710;-62
2020/12/07 00:08:56;;;;;;;2.90;2.70;;;;;;;18.20;49.64;99170.00;5074646;28;20282;-64
2020/12/07 00:11:22;;;;;;;3.10;2.90;;;;;;;18.18;49.74;99168.53;5073326;28;20218;-65
2020/12/07 00:13:48;;;;;;;2.73;2.57;;;;;;;18.15;49.80;99160.81;5073211;28;20188;-65
2020/12/07 00:16:14;;;;;;;2.90;2.70;;;;;;;18.15;49.88;99155.41;5073024;28;20660;-64
2020/12/07 00:18:40;;;;;;;2.77;2.60;;;;;;;18.12;49.67;99145.00;5072881;28;20199;-64
2020/12/07 00:21:09;;;;;;;3.00;2.80;;;;;;;18.09;49.62;99144.38;5073069;28;20188;-66
2020/12/07 00:23:35;;;;;;;2.83;2.63;;;;;;;18.09;49.84;99147.06;5072948;28;20188;-66
2020/12/07 00:26:02;;;;;;;2.70;2.60;;;;;;;18.07;49.52;99132.91;5072827;28;20669;-66
2020/12/07 00:28:28;;;;;;;3.17;2.97;;;;;;;18.05;49.68;99143.09;5072714;28;20210;-67
2020/12/07 00:30:54;;;;;;;2.93;2.73;;;;;;;18.01;49.87;99124.78;5072564;28;20190;-67
2020/12/07 00:33:20;;;;;;;2.97;2.77;;;;;;;17.99;49.70;99130.38;5072985;28;20624;-65
2020/12/07 00:35:46;;;;;;;3.00;2.80;;;;;;;17.96;49.63;99133.47;5072762;28;20246;-62
2020/12/07 00:38:12;;;;;;;2.83;2.63;;;;;;;17.95;49.88;99139.94;5072721;28;20199;-67
2020/12/07 00:40:38;;;;;;;2.90;2.70;;;;;;;17.95;50.02;99139.09;5072754;28;20188;-66
2020/12/07 00:43:04;;;;;;;3.07;2.87;;;;;;;17.95;50.02;99145.34;5071658;28;20655;-64
2020/12/07 00:45:30;;;;;;;2.80;2.60;;;;;;;17.95;49.63;99145.34;5072611;28;20194;-64
2020/12/07 00:47:57;;;;;;;3.17;2.87;;;;;;;17.96;50.11;99148.88;5072516;28;20277;-64
2020/12/07 00:50:23;;;;;;;2.93;2.73;;;;;;;17.97;49.82;99154.09;5072398;28;20615;-64
2020/12/07 00:52:49;;;;;;;2.67;2.47;;;;;;;18.06;50.07;99157.47;5072346;28;20348;-65
2020/12/07 00:55:15;;;;;;;2.73;2.53;;;;;;;18.13;49.75;99144.78;5071159;28;20195;-64
2020/12/07 00:57:41;;;;;;;2.83;2.63;;;;;;;18.23;50.11;99144.41;5071709;28;20564;-64
2020/12/07 01:00:07;;;;;;;2.50;2.40;;;;;;;18.29;49.69;99143.59;5072074;28;20259;-64
2020/12/07 01:02:34;;;;;;;2.93;2.73;;;;;;;18.37;49.94;99136.09;5072246;28;20581;-64
2020/12/07 01:05:00;;;;;;;2.80;2.60;;;;;;;18.46;49.62;99122.38;5071790;28;20699;-64
2020/12/07 01:07:26;;;;;;;2.80;2.60;;;;;;;18.52;49.80;99118.84;5072030;28;20256;-65
2020/12/07 01:09:52;;;;;;;2.63;2.53;;;;;;;18.58;49.49;99118.84;5072037;28;20722;-64
2020/12/07 01:12:18;;;;;;;2.50;2.30;;;;;;;18.61;49.37;99113.00;5072058;28;20188;-68
2020/12/07 01:14:45;;;;;;;2.63;2.43;;;;;;;18.65;49.49;99124.28;5072000;28;20194;-65
2020/12/07 01:17:12;;;;;;;2.87;2.67;;;;;;;18.66;49.33;99121.38;5071916;28;20262;-65
2020/12/07 01:19:38;;;;;;;2.60;2.50;;;;;;;18.67;49.45;99106.78;5071862;28;20304;-65
2020/12/07 01:22:04;;;;;;;3.03;2.83;;;;;;;18.68;49.17;99108.44;5071803;28;20180;-63
2020/12/07 01:24:30;;;;;;;2.70;2.50;;;;;;;18.68;49.31;99108.44;5071606;28;20179;-65
2020/12/07 01:26:56;;;;;;;2.70;2.50;;;;;;;18.67;48.96;99109.47;5071675;28;20195;-63
2020/12/07 01:29:22;;;;;;;2.37;2.27;;;;;;;18.67;49.13;99117.59;5071589;28;20183;-61
2020/12/07 01:31:48;;;;;;;2.60;2.50;;;;;;;18.66;48.88;99124.06;5071689;28;20278;-64
2020/12/07 01:34:14;;;;;;;2.70;2.50;;;;;;;18.64;49.11;99125.31;5071644;28;20187;-63
2020/12/07 01:36:40;;;;;;;2.33;2.23;;;;;;;18.63;49.25;99131.78;5071545;28;20298;-65
2020/12/07 01:39:07;;;;;;;2.57;2.47;;;;;;;18.59;49.14;99123.22;5070758;28;20207;-65
2020/12/07 01:41:33;;;;;;;2.67;2.53;;;;;;;18.58;49.10;99120.72;5071620;28;20208;-65
2020/12/07 01:43:59;;;;;;;2.93;2.73;;;;;;;18.56;49.25;99118.22;5071491;28;20187;-65
2020/12/07 01:46:25;;;;;;;2.43;2.33;;;;;;;18.55;48.95;99111.13;5071570;28;20241;-65
2020/12/07 01:48:52;;;;;;;2.50;2.40;;;;;;;18.53;48.79;99104.25;5071256;28;20200;-63
2020/12/07 01:51:18;;;;;;;2.57;2.37;;;;;;;18.48;48.67;99104.88;5070359;28;20219;-64
2020/12/07 01:53:44;;;;;;;2.87;2.67;;;;;;;18.46;48.97;99106.97;5071207;28;20826;-63
2020/12/07 01:56:12;;;;;;;2.77;2.57;;;;;;;18.42;49.20;99102.97;5070176;28;20246;-63
2020/12/07 01:58:41;;;;;;;2.43;2.33;;;;;;;18.38;48.95;99107.97;5070265;28;20231;-63
2020/12/07 02:01:08;;;;;;;2.80;2.60;;;;;;;18.33;48.71;99105.03;5071111;28;20187;-65
2020/12/07 02:03:34;;;;;;;2.67;2.47;;;;;;;18.28;49.16;99104.00;5070046;28;20183;-63
2020/12/07 02:06:00;;;;;;;3.10;2.90;;;;;;;18.28;49.07;99096.72;5071064;28;20202;-63
2020/12/07 02:08:26;;;;;;;2.97;2.77;;;;;;;18.25;49.12;99109.84;5070669;28;20203;-63
2020/12/07 02:10:52;;;;;;;2.90;2.70;;;;;;;18.25;48.83;99093.59;5070808;28;20252;-63
2020/12/07 02:13:18;;;;;;;3.00;2.80;;;;;;;18.25;49.13;99080.03;5070919;28;20184;-63
2020/12/07 02:15:44;;;;;;;2.47;2.37;;;;;;;18.25;49.15;99088.16;5070912;28;20219;-62
2020/12/07 02:18:10;;;;;;;3.10;2.87;;;;;;;18.23;49.28;99066.72;5070676;28;20564;-63
2020/12/07 02:20:37;;;;;;;2.70;2.50;;;;;;;18.23;49.09;99071.28;5070910;28;20180;-63
2020/12/07 02:23:03;;;;;;;2.80;2.60;;;;;;;18.22;49.32;99072.34;5070963;28;20180;-65
2020/12/07 02:25:29;;;;;;;2.70;2.50;;;;;;;18.20;49.21;99071.69;5069928;28;20669;-65
2020/12/07 02:27:55;;;;;;;2.57;2.43;;;;;;;18.20;49.19;99072.50;5070627;28;20207;-65
2020/12/07 02:30:22;;;;;;;2.60;2.50;;;;;;;18.20;49.29;99071.69;5070783;28;20183;-66
2020/12/07 02:32:48;;;;;;;2.77;2.50;;;;;;;18.20;49.40;99077.09;5069450;28;20176;-61
2020/12/07 02:35:15;;;;;;;2.80;2.60;;;;;;;18.19;49.34;99070.00;5065116;28;20203;-61
2020/12/07 02:37:41;;;;;;;2.63;2.47;;;;;;;18.19;49.17;99059.19;5049556;28;20250;-61
2020/12/07 02:40:08;;;;;;;2.47;2.37;;;;;;;18.18;49.58;99058.34;5049795;28;20177;-61
2020/12/07 02:42:37;;;;;;;2.80;2.60;;;;;;;18.17;49.59;99061.25;5049857;28;20675;-66
2020/12/07 02:45:05;;;;;;;2.50;2.40;;;;;;;18.16;49.53;99055.00;5050590;28;20216;-65
2020/12/07 02:47:32;;;;;;;3.00;2.80;;;;;;;18.16;49.69;99054.19;5050367;28;20196;-65
2020/12/07 02:49:58;;;;;;;2.70;2.53;;;;;;;18.13;49.16;99057.31;5049212;28;20184;-65
2020/12/07 02:52:25;;;;;;;2.90;2.70;;;;;;;18.12;49.33;99055.63;5049399;28;20255;-66
2020/12/07 02:54:55;;;;;;;2.53;2.43;;;;;;;18.10;49.24;99059.38;5049297;28;20598;-66
2020/12/07 02:57:21;;;;;;;2.50;2.40;;;;;;;18.07;49.55;99043.56;5050220;28;20265;-65
2020/12/07 02:59:48;;;;;;;2.77;2.57;;;;;;;18.06;49.62;99050.00;5050375;28;20180;-66
2020/12/07 03:02:14;;;;;;;3.00;2.80;;;;;;;18.04;49.40;99046.69;5049526;28;20180;-66
2020/12/07 03:04:40;;;;;;;2.97;2.77;;;;;;;18.02;49.33;99048.75;5050241;28;20325;-64
2020/12/07 03:07:06;;;;;;;3.10;2.90;;;;;;;18.02;49.10;99047.94;5049337;28;20181;-64
2020/12/07 03:09:32;;;;;;;2.87;2.67;;;;;;;18.05;49.62;99052.94;5049181;28;20212;-64
2020/12/07 03:11:58;;;;;;;3.10;2.90;;;;;;;18.07;49.13;99054.38;5050311;28;20180;-64
2020/12/07 03:14:24;;;;;;;2.80;2.60;;;;;;;18.09;49.10;99048.75;5049289;28;20185;-63
2020/12/07 03:16:52;;;;;;;3.10;2.90;;;;;;;18.14;49.59;99048.97;5050169;28;20688;-63
2020/12/07 03:19:18;;;;;;;3.07;2.87;;;;;;;18.20;49.53;99060.84;5049355;28;20637;-64
2020/12/07 03:21:44;;;;;;;2.67;2.57;;;;;;;18.28;49.15;99068.78;5049512;28;20238;-66
2020/12/07 03:24:10;;;;;;;2.57;2.47;;;;;;;18.34;49.39;99068.78;5050261;28;20195;-64
2020/12/07 03:26:36;;;;;;;2.70;2.53;;;;;;;18.41;49.38;99069.63;5050223;28;20188;-64
2020/12/07 03:29:03;;;;;;;2.70;2.60;;;;;;;18.49;49.13;99065.06;5050099;28;20200;-64
2020/12/07 03:31:36;;;;;;;2.73;2.53;;;;;;;18.59;49.48;99066.31;5050093;28;20199;-64
2020/12/07 03:34:03;;;;;;;2.70;2.60;;;;;;;18.68;49.11;99067.78;5049040;28;20188;-64
2020/12/07 03:36:29;;;;;;;2.80;2.60;;;;;;;18.74;49.21;99068.00;5048988;28;20361;-61
2020/12/07 03:38:55;;;;;;;2.67;2.50;;;;;;;18.78;48.78;99072.81;5048928;28;20231;-66
2020/12/07 03:41:21;;;;;;;3.10;2.90;;;;;;;18.81;49.12;99068.84;5049135;28;20188;-66
2020/12/07 03:43:47;;;;;;;2.73;2.53;;;;;;;18.83;48.80;99069.44;5049001;28;20189;-63
2020/12/07 03:46:13;;;;;;;3.27;3.07;;;;;;;18.84;48.91;99073.84;5053135;28;20189;-63
2020/12/07 03:48:39;;;;;;;3.10;2.90;;;;;;;18.86;48.57;99071.75;5036130;28;20200;-64
2020/12/07 03:51:05;;;;;;;2.90;2.70;;;;;;;18.83;48.82;99066.75;5053477;28;20243;-63
2020/12/07 03:53:36;;;;;;;2.90;2.70;;;;;;;18.83;48.62;99074.88;5052546;28;20258;-64
2020/12/07 03:56:03;;;;;;;2.90;2.70;;;;;;;18.81;48.79;99068.84;5052642;28;20262;-64
2020/12/07 03:58:29;;;;;;;2.90;2.70;;;;;;;18.80;48.70;99057.16;5052585;28;20298;-64
2020/12/07 04:00:56;;;;;;;2.90;2.73;;;;;;;18.77;48.78;99057.59;5053356;28;20191;-66
2020/12/07 04:03:22;;;;;;;3.40;3.20;;;;;;;18.75;48.40;99058.84;5035821;28;20258;-64
2020/12/07 04:05:55;;;;;;;3.10;2.90;;;;;;;18.72;48.92;99064.69;5053551;28;20224;-64
2020/12/07 04:08:21;;;;;;;3.00;2.80;;;;;;;18.70;48.41;99062.19;5052605;28;20216;-66
2020/12/07 04:10:48;;;;;;;3.13;2.93;;;;;;;18.66;48.76;99067.16;5053564;28;20223;-63
2020/12/07 04:13:14;;;;;;;3.00;2.80;;;;;;;18.66;48.79;99064.44;5053204;28;20184;-67
2020/12/07 04:15:40;;;;;;;3.07;2.87;;;;;;;18.63;48.39;99059.44;5053250;28;20703;-65
2020/12/07 04:18:06;;;;;;;3.10;2.90;;;;;;;18.60;48.82;99064.44;5053180;28;20204;-65
2020/12/07 04:20:32;;;;;;;3.20;3.00;;;;;;;18.55;48.32;99056.94;5052200;28;20245;-64
2020/12/07 04:22:58;;;;;;;3.30;3.10;;;;;;;18.53;48.60;99048.19;5052125;28;20180;-65
2020/12/07 04:25:25;;;;;;;3.10;2.90;;;;;;;18.50;48.64;99040.47;5053075;28;20788;-62
2020/12/07 04:27:51;;;;;;;3.60;3.30;;;;;;;18.45;48.75;99042.94;5051920;28;20192;-62
2020/12/07 04:30:17;;;;;;;3.13;2.93;;;;;;;18.39;48.64;99041.06;5053036;28;20198;-64
2020/12/07 04:32:43;;;;;;;3.30;3.10;;;;;;;18.35;48.82;99054.22;5052002;28;20275;-67
2020/12/07 04:35:09;;;;;;;3.57;3.27;;;;;;;18.35;48.70;99059.63;5051966;28;20219;-67
2020/12/07 04:37:35;;;;;;;3.27;3.07;;;;;;;18.33;48.76;99052.75;5051880;28;20247;-63
2020/12/07 04:40:01;;;;;;;3.37;3.17;;;;;;;18.31;48.70;99047.53;5052706;28;20192;-64
2020/12/07 04:42:27;;;;;;;3.30;3.10;;;;;;;18.30;48.94;99055.88;5052614;28;20784;-62
2020/12/07 04:44:53;;;;;;;2.93;2.73;;;;;;;18.31;48.89;99046.72;5051739;28;20203;-62
2020/12/07 04:47:20;;;;;;;3.00;2.80;;;;;;;18.29;48.99;99046.09;5052611;28;20254;-62
2020/12/07 04:49:46;;;;;;;3.17;2.97;;;;;;;18.28;48.94;99044.41;5051657;28;20325;-67
2020/12/07 04:52:15;;;;;;;3.23;3.03;;;;;;;18.29;49.04;99038.78;5051679;28;20183;-67
2020/12/07 04:54:42;;;;;;;3.40;3.20;;;;;;;18.28;49.23;99025.47;5051648;28;20188;-65
2020/12/07 04:57:08;;;;;;;3.30;3.10;;;;;;;18.29;49.11;99021.72;5034593;28;20212;-67
2020/12/07 04:59:35;;;;;;;3.20;3.00;;;;;;;18.28;49.13;99025.47;5051551;28;20180;-67
2020/12/07 05:02:01;;;;;;;3.33;3.13;;;;;;;18.27;48.95;99040.88;5034743;28;20192;-66
2020/12/07 05:04:28;;;;;;;3.20;3.00;;;;;;;18.25;49.21;99047.56;5051338;28;20542;-61
2020/12/07 05:07:00;;;;;;;3.20;3.00;;;;;;;18.26;49.36;99068.16;5051359;28;20685;-61
2020/12/07 05:09:27;;;;;;;3.30;3.10;;;;;;;18.22;48.97;99062.34;5051277;28;20184;-62
2020/12/07 05:11:55;;;;;;;3.10;2.90;;;;;;;18.21;48.96;99071.47;5034733;28;20184;-61
2020/12/07 05:14:21;;;;;;;3.50;3.20;;;;;;;18.20;49.24;99072.50;5051504;28;20397;-64
2020/12/07 05:16:48;;;;;;;3.07;2.87;;;;;;;18.18;49.00;99074.59;5052057;28;20524;-65
2020/12/07 05:19:18;;;;;;;2.90;2.70;;;;;;;18.16;49.14;99078.56;5051819;28;20217;-64
2020/12/07 05:21:44;;;;;;;3.20;3.00;;;;;;;18.16;48.92;99075.84;5050815;28;20241;-66
2020/12/07 05:24:10;;;;;;;3.30;3.10;;;;;;;18.11;48.99;99073.75;5051855;28;20608;-64
2020/12/07 05:26:36;;;;;;;3.80;3.50;;;;;;;18.10;49.15;99078.34;5051901;28;20191;-64
2020/12/07 05:29:07;;;;;;;3.17;2.97;;;;;;;18.06;49.09;99066.25;5051978;28;20201;-64
2020/12/07 05:31:36;;;;;;;3.50;3.30;;;;;;;18.07;49.08;99065.22;5051012;28;20191;-65
2020/12/07 05:34:03;;;;;;;3.50;3.30;;;;;;;18.05;49.23;99070.00;5051072;28;20242;-67
2020/12/07 05:36:29;;;;;;;3.50;3.30;;;;;;;18.06;48.89;99066.25;5050862;28;20223;-62
2020/12/07 05:38:55;;;;;;;3.50;3.20;;;;;;;18.09;49.15;99059.59;5050922;28;20655;-62
2020/12/07 05:41:25;;;;;;;3.30;3.10;;;;;;;18.16;49.36;99065.00;5050845;28;20176;-62
2020/12/07 05:43:51;;;;;;;3.70;3.43;;;;;;;18.26;49.28;99065.47;5050754;28;20184;-62
2020/12/07 05:46:18;;;;;;;3.70;3.40;;;;;;;18.31;48.72;99068.38;5050809;28;20200;-62
2020/12/07 05:48:45;;;;;;;3.40;3.20;;;;;;;18.36;49.15;99065.88;5050593;28;20202;-62
2020/12/07 05:51:12;;;;;;;3.50;3.20;;;;;;;18.41;49.22;99068.78;5050553;28;20192;-62
2020/12/07 05:53:39;;;;;;;3.30;3.10;;;;;;;18.46;48.73;99070.91;5050585;28;20176;-62
2020/12/07 05:56:08;;;;;;;3.43;3.23;;;;;;;18.52;49.03;99080.91;5033412;28;20617;-63
2020/12/07 05:58:57;;;;;;;3.20;3.00;;;;;;;18.59;48.82;99070.88;5050048;28;20233;-62
2020/12/07 06:01:25;;;;;;;3.50;3.20;;;;;;;18.64;48.75;99082.78;5040626;28;20196;-65
2020/12/07 06:03:52;;;;;;;3.20;3.00;;;;;;;18.69;48.94;99080.31;5049827;28;20181;-65
2020/12/07 06:06:30;;;;;;;3.23;3.03;;;;;;;18.75;48.87;99075.09;5050318;28;20204;-64
2020/12/07 06:08:58;;;;;;;3.70;3.40;;;;;;;18.77;48.91;99076.56;5049987;28;20265;-68
2020/12/07 06:11:24;;;;;;;3.70;3.40;;;;;;;18.78;48.36;99074.69;5050205;28;20179;-68
2020/12/07 06:13:50;;;;;;;3.40;3.20;;;;;;;18.79;48.43;99079.06;5050352;28;20561;-63
2020/12/07 06:16:16;;;;;;;3.57;3.37;;;;;;;18.78;48.56;99083.66;5050050;28;20259;-62
2020/12/07 06:18:43;;;;;;;3.80;3.50;;;;;;;18.76;48.20;99077.59;5050056;28;20200;-62
2020/12/07 06:21:18;;;;;;;3.60;3.37;;;;;;;18.77;48.37;99081.16;5051140;28;20188;-62
2020/12/07 06:23:45;;;;;;;3.50;3.30;;;;;;;18.74;48.21;99076.16;5051083;28;20234;-62
2020/12/07 06:26:14;;;;;;;3.70;3.50;;;;;;;18.72;48.55;99067.41;5051003;28;20184;-64
2020/12/07 06:28:41;;;;;;;3.40;3.20;;;;;;;18.69;48.55;99066.78;5033261;28;20212;-65
2020/12/07 06:31:13;;;;;;;3.50;3.30;;;;;;;18.69;48.15;99071.31;5050942;28;20180;-66
2020/12/07 06:33:59;;;;;;;3.83;3.53;;;;;;;18.64;48.30;99074.66;5051065;28;20253;-66
2020/12/07 06:36:28;;;;;;;3.50;3.30;;;;;;;18.61;48.29;99085.06;5050903;28;20204;-65
2020/12/07 06:38:58;;;;;;;3.83;3.53;;;;;;;18.58;48.06;99085.47;5049959;28;20273;-62
2020/12/07 06:41:44;;;;;;;3.80;3.50;;;;;;;18.52;48.03;99087.16;5049830;28;20180;-62
2020/12/07 06:44:18;;;;;;;3.77;3.47;;;;;;;18.49;48.65;99087.56;5049617;28;20229;-62
2020/12/07 06:46:54;;;;;;;4.17;3.87;;;;;;;18.46;48.29;99084.44;5034251;28;20249;-62
2020/12/07 06:49:24;;;;;;;3.77;3.57;;;;;;;18.40;48.13;99095.06;5049479;28;20195;-67
2020/12/07 06:51:57;;;;;;;3.40;3.20;;;;;;;18.37;48.61;99100.06;5049392;28;20169;-65
2020/12/07 06:57:20;;;;;;;3.87;3.57;;;;;;;18.33;48.25;99094.22;5050003;28;20230;-65
2020/12/07 06:59:56;;;;;;;3.90;3.60;;;;;;;18.31;48.59;99100.88;5049841;28;20612;-65
2020/12/07 07:02:23;;;;;;;3.80;3.50;;;;;;;18.29;48.55;99097.53;5050422;28;20300;-64
2020/12/07 07:04:56;;;;;;;3.97;3.70;;;;;;;18.28;48.61;99101.28;5033034;28;20184;-65
2020/12/07 07:07:23;;;;;;;3.80;3.50;;;;;;;18.29;48.31;99102.97;5049756;28;20300;-65
2020/12/07 07:09:49;;;;;;;3.67;3.47;;;;;;;18.30;48.76;99104.63;5049592;28;20228;-65
2020/12/07 07:12:15;;;;;;;3.90;3.60;;;;;;;18.28;48.93;99112.13;5033053;28;20184;-65
2020/12/07 07:14:42;;;;;;;3.67;3.37;;;;;;;18.28;48.94;99115.66;5049153;28;20180;-64
2020/12/07 07:17:09;;;;;;;3.40;3.20;;;;;;;18.28;48.81;99121.09;5050534;28;20224;-62
2020/12/07 07:19:35;;;;;;;3.60;3.40;;;;;;;18.26;48.89;99117.75;5052334;28;20267;-62
2020/12/07 07:22:01;;;;;;;3.57;3.37;;;;;;;18.25;49.07;99118.78;5053499;28;20176;-62
2020/12/07 07:24:35;;;;;;;3.60;3.40;;;;;;;18.24;48.78;99124.41;5054547;28;20180;-62
2020/12/07 07:29:54;;;;;;;3.93;3.63;;;;;;;18.20;48.70;99125.84;5053413;28;20198;-62
2020/12/07 07:32:21;;;;;;;3.90;3.60;;;;;;;18.18;48.95;99123.34;5054270;28;20623;-62
2020/12/07 07:34:48;;;;;;;4.37;4.07;;;;;;;18.19;49.14;99129.59;5054196;28;20177;-62
2020/12/07 07:37:14;;;;;;;4.20;3.90;;;;;;;18.23;48.91;99128.16;5053965;28;20208;-68
2020/12/07 07:39:41;;;;;;;3.97;3.67;;;;;;;18.24;48.76;99127.97;5036586;28;20184;-64
2020/12/07 07:42:12;;;;;;;3.97;3.67;;;;;;;18.28;48.57;99139.22;5053986;28;20181;-65
2020/12/07 07:44:39;;;;;;;4.07;3.77;;;;;;;18.31;49.07;99134.22;5053050;28;20188;-65
2020/12/07 07:47:10;;;;;;;3.80;3.50;;;;;;;18.36;48.68;99133.59;5036207;28;20196;-67
2020/12/07 07:53:07;;;;;;;4.20;3.90;;;;;;;18.46;48.63;99136.75;5053193;28;20180;-65
2020/12/07 08:12:50;;;;;;;5.03;4.63;;;;;;;18.46;48.37;99146.75;5052862;28;20219;-65
2020/12/07 08:17:52;;;;;;;4.87;4.47;;;;;;;18.42;48.10;99162.56;5053262;28;20208;-65
2020/12/07 08:20:20;;;;;;;4.87;4.47;;;;;;;18.42;48.51;99162.56;5053184;28;20176;-65
2020/12/07 08:22:59;;;;;;;4.73;4.33;;;;;;;18.44;48.60;99165.91;5053116;28;20180;-65
2020/12/07 08:25:45;;;;;;;4.80;4.40;;;;;;;18.43;48.32;99166.94;5051957;28;20212;-66
2020/12/07 08:28:23;;;;;;;4.60;4.20;;;;;;;18.45;48.24;99177.56;5053051;28;20223;-67
2020/12/07 08:31:12;;;;;;;4.87;4.47;;;;;;;18.44;48.41;99178.63;5052323;28;20274;-65
2020/12/07 08:33:54;;;;;;;5.03;4.63;;;;;;;18.44;48.31;99182.16;5035556;28;20531;-65
2020/12/07 08:36:20;;;;;;;4.60;4.30;;;;;;;18.45;48.71;99189.25;5051860;28;20842;-64
2020/12/07 08:38:46;;;;;;;4.40;4.00;;;;;;;18.44;48.44;99187.56;5051800;28;20247;-65
2020/12/07 08:41:14;;;;;;;4.50;4.20;;;;;;;18.45;48.46;99194.66;5051993;28;20180;-65
2020/12/07 08:43:42;;;;;;;4.30;4.00;;;;;;;18.43;48.53;99191.31;5052683;28;20608;-65
2020/12/07 08:46:09;;;;;;;4.63;4.23;;;;;;;18.44;48.32;99195.69;5052623;28;20180;-63
2020/12/07 08:48:36;;;;;;;5.00;4.60;;;;;;;18.43;48.79;99191.31;5051534;28;20216;-63
2020/12/07 08:51:02;;;;;;;4.37;4.07;;;;;;;18.41;48.77;99198.81;5051827;28;20211;-64
2020/12/07 08:53:28;;;;;;;4.00;3.70;;;;;;;18.40;48.63;99197.16;5052828;28;20224;-66
2020/12/07 08:55:54;;;;;;;4.43;4.13;;;;;;;18.38;48.66;99204.66;5051850;28;20285;-66
2020/12/07 08:58:20;;;;;;;4.30;4.00;;;;;;;18.36;48.78;99199.44;5051745;28;20643;-66
2020/12/07 09:00:46;;;;;;;5.03;4.53;;;;;;;18.35;48.33;99199.66;5052456;28;20195;-66
2020/12/07 09:03:13;;;;;;;4.90;4.37;;;;;;;18.31;48.40;99206.50;5052831;28;20522;-66
2020/12/07 09:05:40;;;;;;;4.73;4.33;;;;;;;18.28;48.69;99215.88;5052352;28;20684;-66
2020/12/07 09:08:07;;;;;;;4.60;4.20;;;;;;;18.27;48.36;99218.81;5051586;28;20210;-67
2020/12/07 09:10:33;;;;;;;4.57;4.27;;;;;;;18.23;48.42;99210.25;5051783;28;20208;-66
2020/12/07 09:13:00;;;;;;;4.73;4.33;;;;;;;18.19;48.54;99205.41;5052229;28;20274;-67
2020/12/07 09:15:26;;;;;;;4.33;4.00;;;;;;;18.17;48.54;99207.50;5052425;28;20204;-64
2020/12/07 09:17:52;;;;;;;4.90;4.50;;;;;;;18.14;48.64;99210.59;5052340;28;20216;-64
2020/12/07 09:20:18;;;;;;;4.83;4.43;;;;;;;18.13;48.62;99211.66;5052460;28;20624;-64
2020/12/07 09:22:44;;;;;;;4.23;3.93;;;;;;;18.13;48.68;99217.06;5051330;28;20180;-66
2020/12/07 09:25:10;;;;;;;4.70;4.30;;;;;;;18.13;48.61;99211.66;5052376;28;20199;-61
2020/12/07 09:27:36;;;;;;;4.33;4.03;;;;;;;18.11;48.62;99219.97;5050865;28;20196;-61
2020/12/07 09:30:03;;;;;;;4.50;4.10;;;;;;;18.13;49.04;99227.91;5051123;28;20184;-61
2020/12/07 09:32:29;;;;;;;4.80;4.40;;;;;;;18.12;48.81;99224.34;5050974;28;20194;-63
2020/12/07 09:34:55;;;;;;;4.80;4.40;;;;;;;18.13;48.71;99228.72;5051821;28;20254;-62
2020/12/07 09:37:21;;;;;;;4.50;4.20;;;;;;;18.17;48.69;99230.00;5051917;28;20298;-62
2020/12/07 09:39:47;;;;;;;4.90;4.50;;;;;;;18.24;49.18;99236.28;5052123;28;20188;-63
2020/12/07 09:42:13;;;;;;;4.23;3.93;;;;;;;18.31;49.01;99239.84;5051528;28;20199;-63
2020/12/07 09:44:39;;;;;;;4.40;4.00;;;;;;;18.39;49.11;99228.00;5051669;28;20627;-63
2020/12/07 09:47:05;;;;;;;4.20;3.90;;;;;;;18.45;48.85;99242.59;5034053;28;20207;-62
2020/12/07 09:49:39;;;;;;;4.30;3.90;;;;;;;18.49;48.76;99242.00;5062486;28;20215;-62
2020/12/07 09:52:05;;;;;;;4.57;4.20;;;;;;;18.54;48.93;99239.50;5035214;28;20612;-62
2020/12/07 09:54:36;;;;;;;4.53;4.13;;;;;;;18.58;48.72;99246.19;5034290;28;20638;-62
2020/12/07 09:57:03;;;;;;;4.03;3.73;;;;;;;18.61;48.80;99244.94;5050207;28;20541;-62
2020/12/07 09:59:29;;;;;;;4.20;3.90;;;;;;;18.61;48.91;99243.06;5032518;28;20675;-61
2020/12/07 10:01:56;;;;;;;4.10;3.80;;;;;;;18.64;48.61;99244.56;5050013;28;20188;-65
2020/12/07 10:04:22;;;;;;;4.10;3.80;;;;;;;18.63;48.68;99245.59;5050031;28;20199;-62
2020/12/07 10:06:48;;;;;;;4.03;3.73;;;;;;;18.64;48.63;99248.09;5033622;28;20198;-62
2020/12/07 10:09:14;;;;;;;4.78;4.13;;;;;;;18.65;48.78;99249.78;5049914;28;20393;-66
2020/12/07 10:11:40;;;;;;;4.43;4.03;;;;;;;18.61;49.57;99251.19;5016971;28;20214;-68
2020/12/07 10:14:06;;;;;;;4.10;3.70;;;;;;;18.59;49.67;99245.16;5051142;28;20188;-68
2020/12/07 10:16:32;;;;;;;4.00;3.70;;;;;;;18.57;49.60;99249.94;5017101;28;20204;-67
2020/12/07 10:18:58;;;;;;;4.10;3.80;;;;;;;18.55;49.62;99252.03;5017136;28;20737;-68
2020/12/07 10:21:25;;;;;;;4.37;3.97;;;;;;;18.52;49.83;99254.31;5050230;28;20211;-66
2020/12/07 10:23:51;;;;;;;4.20;3.90;;;;;;;18.47;49.48;99256.81;5033612;28;20578;-66
2020/12/07 10:26:21;;;;;;;4.30;4.00;;;;;;;18.44;49.97;99255.31;5033400;28;20279;-66
2020/12/07 10:28:48;;;;;;;4.20;3.90;;;;;;;18.46;49.67;99257.84;5017347;28;20204;-66
2020/12/07 10:31:14;;;;;;;4.00;3.70;;;;;;;18.48;50.01;99269.31;5051003;28;20192;-69
2020/12/07 10:33:40;;;;;;;4.23;3.80;;;;;;;18.50;49.68;99262.63;5050838;28;20312;-69
2020/12/07 10:36:07;;;;;;;4.67;4.27;;;;;;;18.53;49.36;99264.94;5033419;28;20204;-69
2020/12/07 10:38:41;;;;;;;4.03;3.70;;;;;;;18.58;49.45;99262.44;5063482;28;20238;-70
2020/12/07 10:41:07;;;;;;;4.50;4.10;;;;;;;18.63;49.30;99262.69;5065909;28;20496;-70
2020/12/07 10:43:33;;;;;;;5.77;4.23;;;;;;;18.61;48.96;99256.63;5067157;28;20382;-69
2020/12/07 10:45:59;;;;;;;4.57;4.17;;;;;;;18.64;49.20;99256.25;5050308;28;20218;-69
2020/12/07 10:48:25;;;;;;;4.80;4.40;;;;;;;18.64;48.70;99264.38;5066917;28;20272;-69
2020/12/07 10:50:51;;;;;;;4.33;3.93;;;;;;;18.63;49.24;99268.13;5050064;28;20715;-69
2020/12/07 10:53:17;;;;;;;4.57;4.17;;;;;;;18.63;48.86;99268.13;5067677;28;20282;-69
2020/12/07 10:55:43;;;;;;;4.13;3.83;;;;;;;18.62;48.87;99257.44;5068619;28;20190;-69
2020/12/07 10:58:10;;;;;;;4.20;3.80;;;;;;;18.62;49.14;99265.59;5067861;28;20223;-69
2020/12/07 11:00:39;;;;;;;4.40;4.00;;;;;;;18.59;49.19;99268.72;5050846;28;20189;-67
2020/12/07 11:03:05;;;;;;;4.17;3.87;;;;;;;18.56;49.42;99272.66;5050852;28;20286;-67
2020/12/07 11:05:32;;;;;;;4.20;3.90;;;;;;;18.55;49.50;99265.56;5050245;28;20313;-67
2020/12/07 11:07:59;;;;;;;4.10;3.70;;;;;;;18.57;49.34;99273.50;5066609;28;20253;-67
2020/12/07 11:10:25;;;;;;;4.00;3.70;;;;;;;18.55;49.60;99273.69;5067846;28;20183;-67
2020/12/07 11:13:02;;;;;;;4.50;4.10;;;;;;;18.57;49.41;99277.03;5050330;28;20199;-67
2020/12/07 11:15:29;;;;;;;4.43;3.83;;;;;;;18.56;49.57;99272.66;5051979;28;20626;-67
2020/12/07 11:17:55;;;;;;;4.17;3.80;;;;;;;18.54;49.48;99282.88;5066757;28;20838;-74
2020/12/07 11:20:21;;;;;;;4.33;3.97;;;;;;;18.52;49.73;99282.25;5050422;28;20226;-75
2020/12/07 11:22:47;;;;;;;4.27;3.90;;;;;;;18.56;49.27;99282.66;5050322;28;20195;-75
2020/12/07 11:25:13;;;;;;;4.83;3.90;;;;;;;18.53;49.36;99286.63;5067753;28;20683;-72
2020/12/07 11:27:41;;;;;;;4.20;3.80;;;;;;;18.47;49.44;99284.72;5049906;28;20210;-73
2020/12/07 11:30:07;;;;;;;4.07;3.67;;;;;;;18.50;49.15;99284.31;5031442;28;20207;-68
2020/12/07 11:32:33;;;;;;;3.97;3.67;;;;;;;18.49;49.56;99288.06;5047715;28;20263;-68
2020/12/07 11:34:59;;;;;;;4.20;3.90;;;;;;;18.49;48.95;99282.66;5046614;28;20218;-71
2020/12/07 11:37:25;;;;;;;4.63;4.23;;;;;;;18.49;49.06;99276.41;5048003;28;20263;-72
2020/12/07 11:40:10;;;;;;;3.93;3.63;;;;;;;18.50;48.86;99284.31;5047723;28;20274;-74
2020/12/07 11:43:32;;;;;;;4.20;3.80;;;;;;;18.50;49.26;99273.47;5048579;28;20267;-73
2020/12/07 11:45:25;;;;;;;4.07;3.77;;;;;;;18.50;48.85;99273.47;5044979;28;20212;-73
2020/12/07 11:47:51;;;;;;;4.13;3.73;;;;;;;18.50;48.86;99276.19;5048750;28;20204;-74
2020/12/07 11:50:17;;;;;;;4.03;3.73;;;;;;;18.51;49.10;99277.03;5048934;28;20685;-74
2020/12/07 11:52:44;;;;;;;3.80;3.50;;;;;;;18.49;49.01;99282.66;5049105;28;20252;-74
2020/12/07 11:55:10;;;;;;;3.97;3.57;;;;;;;18.48;48.84;99280.97;5049963;28;20239;-69
2020/12/07 11:57:36;;;;;;;4.00;3.70;;;;;;;18.46;49.20;99287.63;5048830;28;20224;-68
2020/12/07 12:00:03;;;;;;;4.03;3.73;;;;;;;18.45;49.26;99292.19;5032437;28;20209;-68
2020/12/07 12:02:29;;;;;;;3.60;3.30;;;;;;;18.44;49.14;99290.53;5049224;28;20526;-68
2020/12/07 12:04:55;;;;;;;3.83;3.43;;;;;;;18.40;49.11;99290.09;5032438;28;20291;-68